Aberdeen, South Dakota
Current Conditions -  °F | °C
As of 1:53 AM on Sunday 26 Oct 2014 (Local Time) from KABR Reporting Station
Clear Clear  
Wind Chill: -1°   Ceiling: Unl
Heat Index:   Visibility: 10mi
Dew Point: -1°   Wind: 8mph
Humidity: 79%   Direction: 130°SE
Pressure: 29.94"   Gusts: NA
Location:  45.46°N, 98.49°W
Report Text: KABR 260653Z AUTO 13007KT 10SM CLR 02/M01 A2994 RMK AO2 SLP142 T00221011
Loading
Personal Weather Stations






























Interactive Weather Map
Tropical Storm Tracking
New forecast layout! Learn more

10-Day Weather Forecast

Advertisements
Track Severe Weather on mobile